sensor_id;sensor_type;location;lat;lon;timestamp;pressure;altitude;pressure_sealevel;temperature;humidity
44349;BME280;30068;50.986;4.564;2023-02-12T00:00:56;103919.78;;;17.02;61.93
44349;BME280;30068;50.986;4.564;2023-02-12T00:03:21;103909.06;;;17.00;61.75
44349;BME280;30068;50.986;4.564;2023-02-12T00:05:46;103901.09;;;16.98;61.84
44349;BME280;30068;50.986;4.564;2023-02-12T00:08:12;103906.50;;;16.98;61.88
44349;BME280;30068;50.986;4.564;2023-02-12T00:10:42;103903.78;;;17.13;61.23
44349;BME280;30068;50.986;4.564;2023-02-12T00:13:11;103908.13;;;17.01;61.78
44349;BME280;30068;50.986;4.564;2023-02-12T00:15:40;103913.00;;;16.94;61.87
44349;BME280;30068;50.986;4.564;2023-02-12T00:18:06;103909.75;;;16.89;62.39
44349;BME280;30068;50.986;4.564;2023-02-12T00:20:31;103912.59;;;16.86;62.24
44349;BME280;30068;50.986;4.564;2023-02-12T00:22:57;103905.88;;;16.93;61.85
44349;BME280;30068;50.986;4.564;2023-02-12T00:25:22;103910.09;;;16.83;62.31
44349;BME280;30068;50.986;4.564;2023-02-12T00:27:48;103913.69;;;16.84;62.35
44349;BME280;30068;50.986;4.564;2023-02-12T00:30:13;103912.97;;;16.80;62.30
44349;BME280;30068;50.986;4.564;2023-02-12T00:32:38;103911.06;;;16.82;62.45
44349;BME280;30068;50.986;4.564;2023-02-12T00:35:05;103914.53;;;16.84;62.02
44349;BME280;30068;50.986;4.564;2023-02-12T00:37:30;103913.84;;;16.81;62.30
44349;BME280;30068;50.986;4.564;2023-02-12T00:39:56;103913.25;;;16.76;62.36
44349;BME280;30068;50.986;4.564;2023-02-12T00:42:21;103912.56;;;16.72;62.35
44349;BME280;30068;50.986;4.564;2023-02-12T00:44:46;103911.81;;;16.70;62.19
44349;BME280;30068;50.986;4.564;2023-02-12T00:47:12;103906.41;;;16.70;62.37
44349;BME280;30068;50.986;4.564;2023-02-12T00:49:37;103908.22;;;16.70;62.54
44349;BME280;30068;50.986;4.564;2023-02-12T00:52:03;103905.63;;;16.68;62.33
44349;BME280;30068;50.986;4.564;2023-02-12T00:54:29;103900.22;;;16.68;62.48
44349;BME280;30068;50.986;4.564;2023-02-12T00:56:55;103908.31;;;16.68;62.40
44349;BME280;30068;50.986;4.564;2023-02-12T00:59:22;103909.34;;;16.66;62.54
44349;BME280;30068;50.986;4.564;2023-02-12T01:01:48;103906.84;;;16.63;62.54
44349;BME280;30068;50.986;4.564;2023-02-12T01:04:13;103905.25;;;16.58;62.68
44349;BME280;30068;50.986;4.564;2023-02-12T01:06:39;103909.81;;;16.58;62.65
44349;BME280;30068;50.986;4.564;2023-02-12T01:09:04;103909.00;;;16.56;62.62
44349;BME280;30068;50.986;4.564;2023-02-12T01:11:30;103911.63;;;16.57;62.78
44349;BME280;30068;50.986;4.564;2023-02-12T01:13:55;103918.84;;;16.57;62.82
44349;BME280;30068;50.986;4.564;2023-02-12T01:16:23;103918.22;;;16.52;62.90
44349;BME280;30068;50.986;4.564;2023-02-12T01:18:48;103907.56;;;16.50;62.95
44349;BME280;30068;50.986;4.564;2023-02-12T01:21:17;103906.56;;;16.51;62.86
44349;BME280;30068;50.986;4.564;2023-02-12T01:23:43;103902.25;;;16.49;62.79
44349;BME280;30068;50.986;4.564;2023-02-12T01:26:09;103904.84;;;16.50;62.86
44349;BME280;30068;50.986;4.564;2023-02-12T01:28:37;103907.44;;;16.52;62.70
44349;BME280;30068;50.986;4.564;2023-02-12T01:31:10;103913.19;;;16.46;63.02
44349;BME280;30068;50.986;4.564;2023-02-12T01:33:36;103914.13;;;16.45;62.98
44349;BME280;30068;50.986;4.564;2023-02-12T01:36:02;103910.41;;;16.47;62.94
44349;BME280;30068;50.986;4.564;2023-02-12T01:38:28;103905.38;;;16.41;62.94
44349;BME280;30068;50.986;4.564;2023-02-12T01:41:08;103899.03;;;16.42;62.95
44349;BME280;30068;50.986;4.564;2023-02-12T01:43:34;103909.91;;;16.41;63.13
44349;BME280;30068;50.986;4.564;2023-02-12T01:46:01;103909.09;;;16.39;62.94
44349;BME280;30068;50.986;4.564;2023-02-12T01:48:31;103902.34;;;16.32;63.00
44349;BME280;30068;50.986;4.564;2023-02-12T01:50:58;103907.56;;;16.35;63.42
44349;BME280;30068;50.986;4.564;2023-02-12T01:53:26;103904.88;;;16.35;63.07
44349;BME280;30068;50.986;4.564;2023-02-12T01:55:56;103906.78;;;16.33;63.04
44349;BME280;30068;50.986;4.564;2023-02-12T01:58:24;103898.69;;;16.33;63.38
44349;BME280;30068;50.986;4.564;2023-02-12T02:00:51;103899.47;;;16.35;63.12
44349;BME280;30068;50.986;4.564;2023-02-12T02:03:17;103894.25;;;16.32;63.32
44349;BME280;30068;50.986;4.564;2023-02-12T02:05:57;103894.44;;;16.29;63.57
44349;BME280;30068;50.986;4.564;2023-02-12T02:08:25;103896.44;;;16.25;63.56
44349;BME280;30068;50.986;4.564;2023-02-12T02:10:50;103892.88;;;16.25;63.64
44349;BME280;30068;50.986;4.564;2023-02-12T02:13:16;103886.59;;;16.24;63.36
44349;BME280;30068;50.986;4.564;2023-02-12T02:16:09;103892.88;;;16.25;63.68
44349;BME280;30068;50.986;4.564;2023-02-12T02:18:55;103896.53;;;16.24;63.65
44349;BME280;30068;50.986;4.564;2023-02-12T02:24:28;103898.25;;;16.25;63.84
44349;BME280;30068;50.986;4.564;2023-02-12T02:27:18;103892.34;;;16.18;63.86
44349;BME280;30068;50.986;4.564;2023-02-12T02:30:10;103888.03;;;16.15;64.33
44349;BME280;30068;50.986;4.564;2023-02-12T02:32:44;103886.28;;;16.14;64.01
44349;BME280;30068;50.986;4.564;2023-02-12T02:35:29;103888.03;;;16.15;64.08
44349;BME280;30068;50.986;4.564;2023-02-12T02:41:05;103883.59;;;16.14;63.92
44349;BME280;30068;50.986;4.564;2023-02-12T02:43:41;103888.38;;;16.09;63.75
44349;BME280;30068;50.986;4.564;2023-02-12T02:46:14;103881.06;;;16.11;64.01
44349;BME280;30068;50.986;4.564;2023-02-12T02:48:49;103880.09;;;16.12;63.70
44349;BME280;30068;50.986;4.564;2023-02-12T02:51:39;103888.19;;;16.12;63.92
44349;BME280;30068;50.986;4.564;2023-02-12T02:54:09;103890.09;;;16.10;64.06
44349;BME280;30068;50.986;4.564;2023-02-12T02:56:38;103893.56;;;16.12;63.90
44349;BME280;30068;50.986;4.564;2023-02-12T02:59:15;103887.59;;;16.07;63.91
44349;BME280;30068;50.986;4.564;2023-02-12T03:01:55;103888.47;;;16.08;63.79
44349;BME280;30068;50.986;4.564;2023-02-12T03:04:29;103884.91;;;16.07;64.03
44349;BME280;30068;50.986;4.564;2023-02-12T03:09:49;103885.06;;;16.04;64.02
44349;BME280;30068;50.986;4.564;2023-02-12T03:12:26;103892.25;;;16.04;63.88
44349;BME280;30068;50.986;4.564;2023-02-12T03:14:59;103889.69;;;16.02;64.19
44349;BME280;30068;50.986;4.564;2023-02-12T03:17:31;103882.63;;;16.00;64.02
44349;BME280;30068;50.986;4.564;2023-02-12T03:20:11;103884.19;;;16.04;63.93
44349;BME280;30068;50.986;4.564;2023-02-12T03:22:41;103887.06;;;16.01;64.16
44349;BME280;30068;50.986;4.564;2023-02-12T03:25:12;103880.09;;;15.97;64.18
44349;BME280;30068;50.986;4.564;2023-02-12T03:27:46;103881.84;;;15.98;64.03
44349;BME280;30068;50.986;4.564;2023-02-12T03:30:14;103881.94;;;15.96;63.97
44349;BME280;30068;50.986;4.564;2023-02-12T03:32:53;103871.78;;;16.01;63.89
44349;BME280;30068;50.986;4.564;2023-02-12T03:35:23;103876.56;;;15.96;63.86
44349;BME280;30068;50.986;4.564;2023-02-12T03:37:57;103878.47;;;15.94;63.96
44349;BME280;30068;50.986;4.564;2023-02-12T03:40:34;103880.22;;;15.95;64.13
44349;BME280;30068;50.986;4.564;2023-02-12T03:43:08;103873.00;;;15.96;64.32
44349;BME280;30068;50.986;4.564;2023-02-12T03:45:44;103872.88;;;15.97;64.04
44349;BME280;30068;50.986;4.564;2023-02-12T03:48:21;103884.72;;;15.95;64.09
44349;BME280;30068;50.986;4.564;2023-02-12T03:53:32;103877.69;;;15.92;64.17
44349;BME280;30068;50.986;4.564;2023-02-12T03:56:09;103882.19;;;15.92;64.10
44349;BME280;30068;50.986;4.564;2023-02-12T03:58:37;103880.38;;;15.92;64.11
44349;BME280;30068;50.986;4.564;2023-02-12T04:01:04;103871.34;;;15.93;64.05
44349;BME280;30068;50.986;4.564;2023-02-12T04:03:30;103867.97;;;15.90;64.27
44349;BME280;30068;50.986;4.564;2023-02-12T04:05:56;103871.50;;;15.90;64.04
44349;BME280;30068;50.986;4.564;2023-02-12T04:08:23;103878.47;;;15.94;64.04
44349;BME280;30068;50.986;4.564;2023-02-12T04:18:43;103880.56;;;15.89;64.03
44349;BME280;30068;50.986;4.564;2023-02-12T04:24:05;103875.50;;;15.83;64.19
44349;BME280;30068;50.986;4.564;2023-02-12T04:26:56;103889.94;;;15.82;64.48
44349;BME280;30068;50.986;4.564;2023-02-12T04:29:48;103902.25;;;15.86;64.14
44349;BME280;30068;50.986;4.564;2023-02-12T04:32:19;103894.72;;;15.93;63.86
44349;BME280;30068;50.986;4.564;2023-02-12T04:34:51;103894.78;;;15.91;64.07
44349;BME280;30068;50.986;4.564;2023-02-12T04:37:34;103893.56;;;15.81;64.22
44349;BME280;30068;50.986;4.564;2023-02-12T04:40:03;103903.13;;;15.87;63.99
44349;BME280;30068;50.986;4.564;2023-02-12T04:42:30;103911.28;;;15.85;63.74
44349;BME280;30068;50.986;4.564;2023-02-12T04:44:55;103909.53;;;15.84;63.73
44349;BME280;30068;50.986;4.564;2023-02-12T04:47:20;103905.97;;;15.84;63.91
44349;BME280;30068;50.986;4.564;2023-02-12T04:49:46;103906.78;;;15.86;64.06
44349;BME280;30068;50.986;4.564;2023-02-12T04:52:11;103910.50;;;15.83;63.86
44349;BME280;30068;50.986;4.564;2023-02-12T04:54:36;103906.84;;;15.84;63.70
44349;BME280;30068;50.986;4.564;2023-02-12T04:57:02;103907.66;;;15.86;63.86
44349;BME280;30068;50.986;4.564;2023-02-12T04:59:27;103902.59;;;15.80;64.41
44349;BME280;30068;50.986;4.564;2023-02-12T05:01:53;103902.25;;;15.86;63.88
44349;BME280;30068;50.986;4.564;2023-02-12T05:04:18;103908.34;;;15.90;63.67
44349;BME280;30068;50.986;4.564;2023-02-12T05:06:44;103899.50;;;15.88;63.76
44349;BME280;30068;50.986;4.564;2023-02-12T05:09:14;103900.69;;;15.82;64.03
44349;BME280;30068;50.986;4.564;2023-02-12T05:11:39;103906.84;;;15.84;63.86
44349;BME280;30068;50.986;4.564;2023-02-12T05:14:05;103912.50;;;15.79;64.03
44349;BME280;30068;50.986;4.564;2023-02-12T05:16:30;103913.53;;;15.77;64.18
44349;BME280;30068;50.986;4.564;2023-02-12T05:18:56;103913.38;;;15.80;64.25
44349;BME280;30068;50.986;4.564;2023-02-12T05:21:21;103898.00;;;15.82;63.99
44349;BME280;30068;50.986;4.564;2023-02-12T05:23:46;103902.59;;;15.80;63.90
44349;BME280;30068;50.986;4.564;2023-02-12T05:26:15;103900.50;;;15.85;63.78
44349;BME280;30068;50.986;4.564;2023-02-12T05:28:40;103899.13;;;15.78;64.04
44349;BME280;30068;50.986;4.564;2023-02-12T05:31:08;103900.59;;;15.68;64.44
44349;BME280;30068;50.986;4.564;2023-02-12T05:33:34;103894.78;;;15.75;64.20
44349;BME280;30068;50.986;4.564;2023-02-12T05:36:08;103897.56;;;15.74;64.31
44349;BME280;30068;50.986;4.564;2023-02-12T05:38:34;103898.44;;;15.74;64.45
44349;BME280;30068;50.986;4.564;2023-02-12T05:41:03;103901.34;;;15.70;64.25
44349;BME280;30068;50.986;4.564;2023-02-12T05:43:29;103902.41;;;15.67;64.35
44349;BME280;30068;50.986;4.564;2023-02-12T05:45:54;103902.00;;;15.75;64.22
44349;BME280;30068;50.986;4.564;2023-02-12T05:48:22;103901.88;;;15.76;63.89
44349;BME280;30068;50.986;4.564;2023-02-12T05:50:47;103901.03;;;15.76;64.03
44349;BME280;30068;50.986;4.564;2023-02-12T05:53:12;103903.91;;;15.73;64.15
44349;BME280;30068;50.986;4.564;2023-02-12T05:55:37;103898.78;;;15.68;64.21
44349;BME280;30068;50.986;4.564;2023-02-12T05:58:03;103902.75;;;15.77;63.79
44349;BME280;30068;50.986;4.564;2023-02-12T06:00:28;103902.41;;;15.83;63.63
44349;BME280;30068;50.986;4.564;2023-02-12T06:02:53;103905.63;;;15.74;63.83
44349;BME280;30068;50.986;4.564;2023-02-12T06:05:19;103906.84;;;15.68;64.33
44349;BME280;30068;50.986;4.564;2023-02-12T06:07:44;103915.78;;;15.69;64.19
44349;BME280;30068;50.986;4.564;2023-02-12T06:10:09;103905.03;;;15.69;64.19
44349;BME280;30068;50.986;4.564;2023-02-12T06:12:35;103904.78;;;15.73;64.24
44349;BME280;30068;50.986;4.564;2023-02-12T06:15:00;103905.03;;;15.69;64.25
44349;BME280;30068;50.986;4.564;2023-02-12T06:17:25;103911.97;;;15.73;64.16
44349;BME280;30068;50.986;4.564;2023-02-12T06:19:51;103911.09;;;15.72;63.88
44349;BME280;30068;50.986;4.564;2023-02-12T06:22:16;103906.75;;;15.70;64.00
44349;BME280;30068;50.986;4.564;2023-02-12T06:24:41;103916.81;;;15.66;64.36
44349;BME280;30068;50.986;4.564;2023-02-12T06:27:07;103913.88;;;15.71;64.04
44349;BME280;30068;50.986;4.564;2023-02-12T06:29:32;103914.78;;;15.87;63.61
44349;BME280;30068;50.986;4.564;2023-02-12T06:31:57;103921.91;;;15.88;63.24
44349;BME280;30068;50.986;4.564;2023-02-12T06:34:22;103926.56;;;15.85;63.37
44349;BME280;30068;50.986;4.564;2023-02-12T06:36:48;103918.44;;;16.02;62.78
44349;BME280;30068;50.986;4.564;2023-02-12T06:39:15;103924.44;;;16.07;62.61
44349;BME280;30068;50.986;4.564;2023-02-12T06:41:40;103929.53;;;16.11;62.03
44349;BME280;30068;50.986;4.564;2023-02-12T06:44:06;103929.56;;;15.96;62.79
44349;BME280;30068;50.986;4.564;2023-02-12T06:46:32;103926.22;;;15.91;63.05
44349;BME280;30068;50.986;4.564;2023-02-12T06:48:59;103924.75;;;15.85;63.76
44349;BME280;30068;50.986;4.564;2023-02-12T06:51:27;103929.13;;;16.03;63.21
44349;BME280;30068;50.986;4.564;2023-02-12T06:53:54;103934.78;;;16.14;62.68
44349;BME280;30068;50.986;4.564;2023-02-12T06:56:21;103936.84;;;16.25;62.40
44349;BME280;30068;50.986;4.564;2023-02-12T06:58:52;103937.38;;;16.32;62.40
44349;BME280;30068;50.986;4.564;2023-02-12T07:01:21;103940.84;;;16.34;62.61
44349;BME280;30068;50.986;4.564;2023-02-12T07:03:49;103939.97;;;16.33;62.70
44349;BME280;30068;50.986;4.564;2023-02-12T07:06:15;103944.16;;;16.39;62.73
44349;BME280;30068;50.986;4.564;2023-02-12T07:08:41;103944.16;;;16.39;62.91
44349;BME280;30068;50.986;4.564;2023-02-12T07:11:06;103953.97;;;16.40;63.05
44349;BME280;30068;50.986;4.564;2023-02-12T07:13:32;103952.66;;;16.47;62.60
44349;BME280;30068;50.986;4.564;2023-02-12T07:16:03;103949.81;;;16.50;62.14
44349;BME280;30068;50.986;4.564;2023-02-12T07:18:29;103952.16;;;16.56;62.11
44349;BME280;30068;50.986;4.564;2023-02-12T07:20:55;103956.84;;;16.52;62.05
44349;BME280;30068;50.986;4.564;2023-02-12T07:23:20;103954.50;;;16.46;62.55
44349;BME280;30068;50.986;4.564;2023-02-12T07:26:03;103959.03;;;16.62;62.17
44349;BME280;30068;50.986;4.564;2023-02-12T07:28:29;103957.63;;;16.70;61.56
44349;BME280;30068;50.986;4.564;2023-02-12T07:31:18;103966.75;;;16.68;61.49
44349;BME280;30068;50.986;4.564;2023-02-12T07:33:44;103965.31;;;16.62;62.03
44349;BME280;30068;50.986;4.564;2023-02-12T07:36:14;103965.72;;;16.54;62.46
44349;BME280;30068;50.986;4.564;2023-02-12T07:38:39;103958.94;;;16.63;61.67
44349;BME280;30068;50.986;4.564;2023-02-12T07:41:16;103967.28;;;16.74;61.28
44349;BME280;30068;50.986;4.564;2023-02-12T07:43:44;103959.19;;;16.74;61.51
44349;BME280;30068;50.986;4.564;2023-02-12T07:46:15;103960.13;;;16.73;61.84
44349;BME280;30068;50.986;4.564;2023-02-12T07:48:42;103956.69;;;16.71;62.09
44349;BME280;30068;50.986;4.564;2023-02-12T07:51:09;103960.50;;;16.67;62.29
44349;BME280;30068;50.986;4.564;2023-02-12T07:53:36;103965.31;;;16.62;62.53
44349;BME280;30068;50.986;4.564;2023-02-12T07:56:05;103961.81;;;16.76;61.73
44349;BME280;30068;50.986;4.564;2023-02-12T07:58:31;103970.22;;;16.85;61.38
44349;BME280;30068;50.986;4.564;2023-02-12T08:00:56;103968.66;;;16.81;61.63
44349;BME280;30068;50.986;4.564;2023-02-12T08:03:22;103968.50;;;16.84;61.48
44349;BME280;30068;50.986;4.564;2023-02-12T08:05:47;103960.56;;;16.81;61.67
44349;BME280;30068;50.986;4.564;2023-02-12T08:08:12;103965.28;;;16.78;61.99
44349;BME280;30068;50.986;4.564;2023-02-12T08:10:37;103967.34;;;16.73;61.91
44349;BME280;30068;50.986;4.564;2023-02-12T08:13:03;103965.91;;;16.67;62.21
44349;BME280;30068;50.986;4.564;2023-02-12T08:15:28;103967.78;;;16.81;61.54
44349;BME280;30068;50.986;4.564;2023-02-12T08:17:53;103969.16;;;16.88;61.27
44349;BME280;30068;50.986;4.564;2023-02-12T08:20:19;103973.69;;;16.87;61.34
44349;BME280;30068;50.986;4.564;2023-02-12T08:22:44;103972.13;;;16.83;61.90
44349;BME280;30068;50.986;4.564;2023-02-12T08:25:10;103971.06;;;16.86;61.67
44349;BME280;30068;50.986;4.564;2023-02-12T08:27:35;103966.81;;;16.82;61.92
44349;BME280;30068;50.986;4.564;2023-02-12T08:30:00;103968.50;;;16.84;61.90
44349;BME280;30068;50.986;4.564;2023-02-12T08:32:26;103971.28;;;16.83;62.10
44349;BME280;30068;50.986;4.564;2023-02-12T08:34:53;103975.97;;;16.79;62.16
44349;BME280;30068;50.986;4.564;2023-02-12T08:37:18;103971.81;;;16.74;62.32
44349;BME280;30068;50.986;4.564;2023-02-12T08:39:44;103974.03;;;16.81;62.36
44349;BME280;30068;50.986;4.564;2023-02-12T08:42:09;103982.38;;;16.92;61.49
44349;BME280;30068;50.986;4.564;2023-02-12T08:44:34;103979.59;;;16.94;61.47
44349;BME280;30068;50.986;4.564;2023-02-12T08:47:00;103971.06;;;16.86;61.80
44349;BME280;30068;50.986;4.564;2023-02-12T08:49:27;103980.81;;;16.88;61.77
44349;BME280;30068;50.986;4.564;2023-02-12T08:51:55;103983.34;;;16.91;61.83
44349;BME280;30068;50.986;4.564;2023-02-12T08:54:23;103980.66;;;16.91;61.74
44349;BME280;30068;50.986;4.564;2023-02-12T08:56:49;103972.81;;;16.87;61.78
44349;BME280;30068;50.986;4.564;2023-02-12T08:59:15;103982.13;;;16.81;62.04
44349;BME280;30068;50.986;4.564;2023-02-12T09:01:41;103976.31;;;16.73;62.37
44349;BME280;30068;50.986;4.564;2023-02-12T09:04:26;103978.59;;;16.65;62.82
44349;BME280;30068;50.986;4.564;2023-02-12T09:06:52;103986.00;;;16.62;63.03
44349;BME280;30068;50.986;4.564;2023-02-12T09:09:18;103978.03;;;16.58;62.68
44349;BME280;30068;50.986;4.564;2023-02-12T09:11:44;103978.91;;;16.59;63.18
44349;BME280;30068;50.986;4.564;2023-02-12T09:14:12;103979.09;;;16.56;63.27
44349;BME280;30068;50.986;4.564;2023-02-12T09:16:38;103974.81;;;16.52;63.10
44349;BME280;30068;50.986;4.564;2023-02-12T09:19:07;103978.75;;;16.46;63.17
44349;BME280;30068;50.986;4.564;2023-02-12T09:21:33;103973.34;;;16.46;63.46
44349;BME280;30068;50.986;4.564;2023-02-12T09:24:00;103974.22;;;16.47;63.10
44349;BME280;30068;50.986;4.564;2023-02-12T09:26:26;103973.63;;;16.42;63.25
44349;BME280;30068;50.986;4.564;2023-02-12T09:28:52;103976.31;;;16.42;63.44
44349;BME280;30068;50.986;4.564;2023-02-12T09:31:24;103978.16;;;16.41;63.18
44349;BME280;30068;50.986;4.564;2023-02-12T09:33:54;103983.63;;;16.40;63.58
44349;BME280;30068;50.986;4.564;2023-02-12T09:36:19;103984.84;;;16.34;63.63
44349;BME280;30068;50.986;4.564;2023-02-12T09:38:45;103985.88;;;16.32;63.76
44349;BME280;30068;50.986;4.564;2023-02-12T09:47:24;103994.31;;;16.26;63.91
44349;BME280;30068;50.986;4.564;2023-02-12T09:50:05;103997.06;;;16.24;63.83
44349;BME280;30068;50.986;4.564;2023-02-12T09:52:36;103996.31;;;16.22;63.71
44349;BME280;30068;50.986;4.564;2023-02-12T09:55:02;104003.25;;;16.26;63.72
44349;BME280;30068;50.986;4.564;2023-02-12T09:57:31;104000.84;;;16.22;63.81
44349;BME280;30068;50.986;4.564;2023-02-12T10:02:30;103999.16;;;16.19;64.13
44349;BME280;30068;50.986;4.564;2023-02-12T10:04:58;104003.78;;;16.17;63.94
44349;BME280;30068;50.986;4.564;2023-02-12T10:07:35;104007.31;;;16.17;63.57
44349;BME280;30068;50.986;4.564;2023-02-12T10:16:26;104021.16;;;16.11;64.34
44349;BME280;30068;50.986;4.564;2023-02-12T10:19:14;104019.41;;;16.10;64.00
44349;BME280;30068;50.986;4.564;2023-02-12T10:25:00;104016.00;;;16.07;64.24
44349;BME280;30068;50.986;4.564;2023-02-12T10:27:37;104015.94;;;16.08;64.29
44349;BME280;30068;50.986;4.564;2023-02-12T10:30:16;104016.00;;;16.07;63.89
44349;BME280;30068;50.986;4.564;2023-02-12T10:32:43;104019.59;;;16.07;64.07
44349;BME280;30068;50.986;4.564;2023-02-12T10:35:15;104018.72;;;16.07;64.29
44349;BME280;30068;50.986;4.564;2023-02-12T10:38:00;104019.75;;;16.04;64.26
44349;BME280;30068;50.986;4.564;2023-02-12T10:40:30;104019.66;;;16.06;64.24
44349;BME280;30068;50.986;4.564;2023-02-12T10:42:59;104021.66;;;16.02;64.25
44349;BME280;30068;50.986;4.564;2023-02-12T10:45:36;104017.16;;;16.03;64.11
44349;BME280;30068;50.986;4.564;2023-02-12T10:53:34;104009.22;;;16.00;64.21
44349;BME280;30068;50.986;4.564;2023-02-12T10:56:09;104009.31;;;15.98;64.10
44349;BME280;30068;50.986;4.564;2023-02-12T10:58:38;103996.78;;;15.97;64.56
44349;BME280;30068;50.986;4.564;2023-02-12T11:01:14;103991.31;;;15.99;64.18
44349;BME280;30068;50.986;4.564;2023-02-12T11:03:40;103998.72;;;15.95;64.54
44349;BME280;30068;50.986;4.564;2023-02-12T11:06:27;104001.22;;;15.98;64.41
44349;BME280;30068;50.986;4.564;2023-02-12T11:08:53;103989.69;;;15.96;64.39
44349;BME280;30068;50.986;4.564;2023-02-12T11:11:29;103988.28;;;15.89;64.52
44349;BME280;30068;50.986;4.564;2023-02-12T11:14:18;103990.13;;;15.02;53.68
44349;BME280;30068;50.986;4.564;2023-02-12T11:16:53;103989.66;;;15.46;57.57
44349;BME280;30068;50.986;4.564;2023-02-12T11:19:25;103983.09;;;15.52;57.88
44349;BME280;30068;50.986;4.564;2023-02-12T11:21:51;103974.50;;;15.62;59.26
44349;BME280;30068;50.986;4.564;2023-02-12T11:24:30;103976.84;;;15.68;59.44
44349;BME280;30068;50.986;4.564;2023-02-12T11:29:39;103983.00;;;15.70;60.21
44349;BME280;30068;50.986;4.564;2023-02-12T11:32:07;103977.47;;;15.73;60.58
44349;BME280;30068;50.986;4.564;2023-02-12T11:34:35;103972.94;;;15.74;61.06
44349;BME280;30068;50.986;4.564;2023-02-12T11:37:00;103973.09;;;15.71;61.22
44349;BME280;30068;50.986;4.564;2023-02-12T11:42:00;103973.81;;;15.74;62.02
44349;BME280;30068;50.986;4.564;2023-02-12T11:47:00;103969.38;;;15.73;62.24
44349;BME280;30068;50.986;4.564;2023-02-12T11:49:32;103963.13;;;15.73;62.60
44349;BME280;30068;50.986;4.564;2023-02-12T11:52:00;103973.09;;;15.71;62.70
44349;BME280;30068;50.986;4.564;2023-02-12T11:54:29;103969.53;;;15.70;62.92
44349;BME280;30068;50.986;4.564;2023-02-12T11:56:56;103972.06;;;15.73;62.87
44349;BME280;30068;50.986;4.564;2023-02-12T11:59:36;103964.78;;;15.75;62.84
44349;BME280;30068;50.986;4.564;2023-02-12T12:02:30;103965.91;;;15.71;63.02
44349;BME280;30068;50.986;4.564;2023-02-12T12:05:07;103955.19;;;15.70;63.02
44349;BME280;30068;50.986;4.564;2023-02-12T12:07:38;103956.94;;;15.71;62.99
44349;BME280;30068;50.986;4.564;2023-02-12T12:10:30;103960.69;;;15.68;63.04
44349;BME280;30068;50.986;4.564;2023-02-12T12:13:00;103952.69;;;15.67;63.25
44349;BME280;30068;50.986;4.564;2023-02-12T12:15:39;103951.56;;;15.71;63.46
44349;BME280;30068;50.986;4.564;2023-02-12T12:18:36;103951.75;;;15.68;63.55
44349;BME280;30068;50.986;4.564;2023-02-12T12:24:08;103948.25;;;15.66;63.61
44349;BME280;30068;50.986;4.564;2023-02-12T12:26:37;103947.13;;;15.70;63.54
44349;BME280;30068;50.986;4.564;2023-02-12T12:29:12;103941.13;;;15.65;63.70
44349;BME280;30068;50.986;4.564;2023-02-12T12:31:45;103935.66;;;15.66;63.57
44349;BME280;30068;50.986;4.564;2023-02-12T12:34:14;103929.41;;;15.66;63.73
44349;BME280;30068;50.986;4.564;2023-02-12T12:36:55;103931.84;;;15.70;63.81
44349;BME280;30068;50.986;4.564;2023-02-12T12:53:17;103917.69;;;15.67;64.01
44349;BME280;30068;50.986;4.564;2023-02-12T12:55:58;103920.19;;;15.70;64.16
44349;BME280;30068;50.986;4.564;2023-02-12T12:58:38;103917.63;;;15.68;64.11
44349;BME280;30068;50.986;4.564;2023-02-12T13:09:47;103902.56;;;15.64;64.60
44349;BME280;30068;50.986;4.564;2023-02-12T13:27:03;103877.41;;;15.65;64.70
44349;BME280;30068;50.986;4.564;2023-02-12T13:29:33;103869.25;;;15.67;64.69
44349;BME280;30068;50.986;4.564;2023-02-12T13:32:23;103864.97;;;15.63;64.81
44349;BME280;30068;50.986;4.564;2023-02-12T13:34:52;103862.13;;;15.66;64.78
44349;BME280;30068;50.986;4.564;2023-02-12T13:37:31;103870.25;;;15.64;64.73
44349;BME280;30068;50.986;4.564;2023-02-12T13:40:02;103857.88;;;15.62;65.15
44349;BME280;30068;50.986;4.564;2023-02-12T13:45:39;103860.63;;;15.60;65.24
44349;BME280;30068;50.986;4.564;2023-02-12T13:53:19;103853.44;;;15.61;65.35
44349;BME280;30068;50.986;4.564;2023-02-12T13:56:09;103852.03;;;15.54;65.51
44349;BME280;30068;50.986;4.564;2023-02-12T14:01:03;103852.03;;;15.54;65.54
44349;BME280;30068;50.986;4.564;2023-02-12T14:03:30;103845.78;;;15.53;65.33
44349;BME280;30068;50.986;4.564;2023-02-12T14:06:18;103848.19;;;15.58;65.26
44349;BME280;30068;50.986;4.564;2023-02-12T14:08:51;103855.34;;;15.59;65.18
44349;BME280;30068;50.986;4.564;2023-02-12T14:11:20;103854.53;;;15.57;65.50
44349;BME280;30068;50.986;4.564;2023-02-12T14:13:52;103845.69;;;15.55;65.45
44349;BME280;30068;50.986;4.564;2023-02-12T14:21:57;103842.25;;;15.51;65.74
44349;BME280;30068;50.986;4.564;2023-02-12T14:27:04;103826.31;;;15.48;65.73
44349;BME280;30068;50.986;4.564;2023-02-12T14:29:30;103831.69;;;15.48;65.49
44349;BME280;30068;50.986;4.564;2023-02-12T14:31:55;103830.63;;;15.51;65.51
44349;BME280;30068;50.986;4.564;2023-02-12T14:36:47;103830.81;;;15.48;65.47
44349;BME280;30068;50.986;4.564;2023-02-12T14:44:55;103839.75;;;15.48;65.81
44349;BME280;30068;50.986;4.564;2023-02-12T14:49:53;103832.63;;;15.47;65.88
44349;BME280;30068;50.986;4.564;2023-02-12T14:52:25;103832.72;;;15.46;65.94
44349;BME280;30068;50.986;4.564;2023-02-12T14:54:57;103830.09;;;15.44;65.94
44349;BME280;30068;50.986;4.564;2023-02-12T14:57:32;103821.00;;;15.47;65.87
44349;BME280;30068;50.986;4.564;2023-02-12T15:02:54;103823.94;;;15.42;65.80
44349;BME280;30068;50.986;4.564;2023-02-12T15:05:26;103824.03;;;15.40;66.03
44349;BME280;30068;50.986;4.564;2023-02-12T15:07:59;103826.53;;;15.43;65.75
44349;BME280;30068;50.986;4.564;2023-02-12T15:10:30;103828.47;;;15.41;65.85